sensor_id;sensor_type;location;lat;lon;timestamp;P1;durP1;ratioP1;P2;durP2;ratioP2
40254;SDS011;25973;52.368;4.940;2023-06-24T00:00:56;5.95;;;2.88;;
40254;SDS011;25973;52.368;4.940;2023-06-24T00:03:22;7.10;;;3.70;;
40254;SDS011;25973;52.368;4.940;2023-06-24T00:05:47;7.15;;;3.78;;
40254;SDS011;25973;52.368;4.940;2023-06-24T00:08:14;11.77;;;4.95;;
40254;SDS011;25973;52.368;4.940;2023-06-24T00:10:40;7.63;;;4.03;;
40254;SDS011;25973;52.368;4.940;2023-06-24T00:13:08;10.25;;;5.25;;
40254;SDS011;25973;52.368;4.940;2023-06-24T00:15:33;9.20;;;4.65;;
40254;SDS011;25973;52.368;4.940;2023-06-24T00:17:59;8.15;;;4.75;;
40254;SDS011;25973;52.368;4.940;2023-06-24T00:20:30;8.98;;;4.50;;
40254;SDS011;25973;52.368;4.940;2023-06-24T00:22:56;9.05;;;4.38;;
40254;SDS011;25973;52.368;4.940;2023-06-24T00:25:22;8.48;;;3.80;;
40254;SDS011;25973;52.368;4.940;2023-06-24T00:27:47;8.13;;;4.75;;
40254;SDS011;25973;52.368;4.940;2023-06-24T00:30:13;8.18;;;4.57;;
40254;SDS011;25973;52.368;4.940;2023-06-24T00:32:38;7.18;;;4.13;;
40254;SDS011;25973;52.368;4.940;2023-06-24T00:35:05;7.88;;;5.00;;
40254;SDS011;25973;52.368;4.940;2023-06-24T00:37:31;8.90;;;4.80;;
40254;SDS011;25973;52.368;4.940;2023-06-24T00:39:56;9.35;;;4.55;;
40254;SDS011;25973;52.368;4.940;2023-06-24T00:42:22;7.18;;;4.60;;
40254;SDS011;25973;52.368;4.940;2023-06-24T00:44:48;10.77;;;5.75;;
40254;SDS011;25973;52.368;4.940;2023-06-24T00:47:13;10.68;;;5.15;;
40254;SDS011;25973;52.368;4.940;2023-06-24T00:49:39;10.27;;;5.68;;
40254;SDS011;25973;52.368;4.940;2023-06-24T00:52:04;13.55;;;4.70;;
40254;SDS011;25973;52.368;4.940;2023-06-24T00:54:30;10.77;;;4.88;;
40254;SDS011;25973;52.368;4.940;2023-06-24T00:56:57;9.43;;;5.15;;
40254;SDS011;25973;52.368;4.940;2023-06-24T00:59:25;8.25;;;4.18;;
40254;SDS011;25973;52.368;4.940;2023-06-24T01:01:55;7.80;;;4.00;;
40254;SDS011;25973;52.368;4.940;2023-06-24T01:04:20;7.13;;;4.47;;
40254;SDS011;25973;52.368;4.940;2023-06-24T01:06:46;8.65;;;4.22;;
40254;SDS011;25973;52.368;4.940;2023-06-24T01:09:13;7.80;;;3.90;;
40254;SDS011;25973;52.368;4.940;2023-06-24T01:11:40;12.35;;;3.63;;
40254;SDS011;25973;52.368;4.940;2023-06-24T01:14:05;8.38;;;3.83;;
40254;SDS011;25973;52.368;4.940;2023-06-24T01:22:14;5.80;;;3.22;;
40254;SDS011;25973;52.368;4.940;2023-06-24T01:25:23;6.40;;;3.47;;
40254;SDS011;25973;52.368;4.940;2023-06-24T01:36:37;5.65;;;3.03;;
40254;SDS011;25973;52.368;4.940;2023-06-24T01:39:07;5.88;;;2.40;;
40254;SDS011;25973;52.368;4.940;2023-06-24T01:41:35;4.88;;;3.05;;
40254;SDS011;25973;52.368;4.940;2023-06-24T01:44:05;5.60;;;3.33;;
40254;SDS011;25973;52.368;4.940;2023-06-24T01:46:35;5.85;;;2.53;;
40254;SDS011;25973;52.368;4.940;2023-06-24T01:49:02;5.70;;;2.92;;
40254;SDS011;25973;52.368;4.940;2023-06-24T01:51:32;5.67;;;2.80;;
40254;SDS011;25973;52.368;4.940;2023-06-24T01:54:04;5.00;;;2.88;;
40254;SDS011;25973;52.368;4.940;2023-06-24T01:59:00;8.50;;;2.83;;
40254;SDS011;25973;52.368;4.940;2023-06-24T02:01:27;7.53;;;3.05;;
40254;SDS011;25973;52.368;4.940;2023-06-24T02:03:53;9.27;;;2.92;;
40254;SDS011;25973;52.368;4.940;2023-06-24T02:06:21;6.43;;;2.75;;
40254;SDS011;25973;52.368;4.940;2023-06-24T02:08:52;6.93;;;3.00;;
40254;SDS011;25973;52.368;4.940;2023-06-24T02:11:19;4.75;;;2.58;;
40254;SDS011;25973;52.368;4.940;2023-06-24T02:13:48;5.75;;;2.67;;
40254;SDS011;25973;52.368;4.940;2023-06-24T02:16:16;5.32;;;2.63;;
40254;SDS011;25973;52.368;4.940;2023-06-24T02:18:43;7.63;;;2.97;;
40254;SDS011;25973;52.368;4.940;2023-06-24T02:21:09;6.28;;;2.70;;
40254;SDS011;25973;52.368;4.940;2023-06-24T02:23:37;6.05;;;2.85;;
40254;SDS011;25973;52.368;4.940;2023-06-24T02:26:03;5.90;;;2.55;;
40254;SDS011;25973;52.368;4.940;2023-06-24T02:28:31;6.30;;;2.65;;
40254;SDS011;25973;52.368;4.940;2023-06-24T02:30:58;3.85;;;2.20;;
40254;SDS011;25973;52.368;4.940;2023-06-24T02:33:24;8.63;;;2.63;;
40254;SDS011;25973;52.368;4.940;2023-06-24T02:35:51;4.15;;;2.25;;
40254;SDS011;25973;52.368;4.940;2023-06-24T02:38:17;6.78;;;2.38;;
40254;SDS011;25973;52.368;4.940;2023-06-24T02:40:43;4.35;;;2.60;;
40254;SDS011;25973;52.368;4.940;2023-06-24T02:43:10;5.50;;;2.92;;
40254;SDS011;25973;52.368;4.940;2023-06-24T02:45:36;4.03;;;2.28;;
40254;SDS011;25973;52.368;4.940;2023-06-24T02:48:02;6.88;;;2.30;;
40254;SDS011;25973;52.368;4.940;2023-06-24T02:50:29;5.25;;;2.55;;
40254;SDS011;25973;52.368;4.940;2023-06-24T02:52:56;6.78;;;2.47;;
40254;SDS011;25973;52.368;4.940;2023-06-24T02:55:22;4.72;;;2.60;;
40254;SDS011;25973;52.368;4.940;2023-06-24T02:57:48;8.05;;;3.10;;
40254;SDS011;25973;52.368;4.940;2023-06-24T03:00:15;8.27;;;2.10;;
40254;SDS011;25973;52.368;4.940;2023-06-24T03:02:41;4.10;;;2.22;;
40254;SDS011;25973;52.368;4.940;2023-06-24T03:05:09;5.05;;;2.50;;
40254;SDS011;25973;52.368;4.940;2023-06-24T03:07:36;6.10;;;2.95;;
40254;SDS011;25973;52.368;4.940;2023-06-24T03:10:03;4.65;;;1.98;;
40254;SDS011;25973;52.368;4.940;2023-06-24T03:12:32;6.95;;;1.90;;
40254;SDS011;25973;52.368;4.940;2023-06-24T03:14:58;4.00;;;2.10;;
40254;SDS011;25973;52.368;4.940;2023-06-24T03:17:25;4.68;;;2.13;;
40254;SDS011;25973;52.368;4.940;2023-06-24T03:19:51;3.80;;;2.03;;
40254;SDS011;25973;52.368;4.940;2023-06-24T03:22:17;3.72;;;2.15;;
40254;SDS011;25973;52.368;4.940;2023-06-24T03:24:43;3.38;;;1.92;;
40254;SDS011;25973;52.368;4.940;2023-06-24T03:27:08;4.82;;;2.10;;
40254;SDS011;25973;52.368;4.940;2023-06-24T03:29:34;4.30;;;1.88;;
40254;SDS011;25973;52.368;4.940;2023-06-24T03:32:00;4.57;;;1.98;;
40254;SDS011;25973;52.368;4.940;2023-06-24T03:34:25;2.85;;;1.83;;
40254;SDS011;25973;52.368;4.940;2023-06-24T03:36:52;7.63;;;2.20;;
40254;SDS011;25973;52.368;4.940;2023-06-24T03:39:21;2.85;;;1.90;;
40254;SDS011;25973;52.368;4.940;2023-06-24T03:41:47;5.30;;;2.25;;
40254;SDS011;25973;52.368;4.940;2023-06-24T03:44:13;4.43;;;2.08;;
40254;SDS011;25973;52.368;4.940;2023-06-24T03:46:38;3.35;;;1.50;;
40254;SDS011;25973;52.368;4.940;2023-06-24T03:49:04;3.75;;;1.73;;
40254;SDS011;25973;52.368;4.940;2023-06-24T03:51:30;5.13;;;1.73;;
40254;SDS011;25973;52.368;4.940;2023-06-24T03:53:56;4.60;;;1.80;;
40254;SDS011;25973;52.368;4.940;2023-06-24T03:56:22;3.83;;;1.88;;
40254;SDS011;25973;52.368;4.940;2023-06-24T03:58:47;4.00;;;2.10;;
40254;SDS011;25973;52.368;4.940;2023-06-24T04:01:13;4.60;;;1.40;;
40254;SDS011;25973;52.368;4.940;2023-06-24T04:03:39;3.72;;;2.00;;
40254;SDS011;25973;52.368;4.940;2023-06-24T04:06:04;5.47;;;2.10;;
40254;SDS011;25973;52.368;4.940;2023-06-24T04:08:30;5.70;;;1.88;;
40254;SDS011;25973;52.368;4.940;2023-06-24T04:10:56;3.35;;;1.65;;
40254;SDS011;25973;52.368;4.940;2023-06-24T04:13:24;6.65;;;2.35;;
40254;SDS011;25973;52.368;4.940;2023-06-24T04:15:50;3.97;;;1.90;;
40254;SDS011;25973;52.368;4.940;2023-06-24T04:18:16;3.53;;;1.48;;
40254;SDS011;25973;52.368;4.940;2023-06-24T04:20:42;5.13;;;2.03;;
40254;SDS011;25973;52.368;4.940;2023-06-24T04:23:08;8.57;;;2.13;;
40254;SDS011;25973;52.368;4.940;2023-06-24T04:25:35;5.20;;;1.90;;
40254;SDS011;25973;52.368;4.940;2023-06-24T04:28:01;5.07;;;1.90;;
40254;SDS011;25973;52.368;4.940;2023-06-24T04:30:29;3.45;;;1.77;;
40254;SDS011;25973;52.368;4.940;2023-06-24T04:32:55;5.75;;;1.63;;
40254;SDS011;25973;52.368;4.940;2023-06-24T04:35:21;10.35;;;2.28;;
40254;SDS011;25973;52.368;4.940;2023-06-24T04:37:46;6.35;;;1.80;;
40254;SDS011;25973;52.368;4.940;2023-06-24T04:40:14;7.60;;;2.20;;
40254;SDS011;25973;52.368;4.940;2023-06-24T04:42:41;5.88;;;2.22;;
40254;SDS011;25973;52.368;4.940;2023-06-24T04:45:07;6.40;;;2.70;;
40254;SDS011;25973;52.368;4.940;2023-06-24T04:47:33;4.47;;;1.92;;
40254;SDS011;25973;52.368;4.940;2023-06-24T04:49:58;6.55;;;2.78;;
40254;SDS011;25973;52.368;4.940;2023-06-24T04:52:27;4.50;;;2.63;;
40254;SDS011;25973;52.368;4.940;2023-06-24T04:54:53;3.60;;;1.85;;
40254;SDS011;25973;52.368;4.940;2023-06-24T04:57:28;4.22;;;1.75;;
40254;SDS011;25973;52.368;4.940;2023-06-24T04:59:55;5.28;;;2.42;;
40254;SDS011;25973;52.368;4.940;2023-06-24T05:02:21;6.55;;;2.10;;
40254;SDS011;25973;52.368;4.940;2023-06-24T05:04:47;6.55;;;1.80;;
40254;SDS011;25973;52.368;4.940;2023-06-24T05:07:13;5.50;;;1.98;;
40254;SDS011;25973;52.368;4.940;2023-06-24T05:09:39;7.65;;;2.20;;
40254;SDS011;25973;52.368;4.940;2023-06-24T05:12:05;5.63;;;3.08;;
40254;SDS011;25973;52.368;4.940;2023-06-24T05:14:31;6.53;;;2.38;;
40254;SDS011;25973;52.368;4.940;2023-06-24T05:16:56;4.72;;;2.40;;
40254;SDS011;25973;52.368;4.940;2023-06-24T05:19:22;4.90;;;2.15;;
40254;SDS011;25973;52.368;4.940;2023-06-24T05:21:48;6.95;;;2.72;;
40254;SDS011;25973;52.368;4.940;2023-06-24T05:24:13;5.93;;;2.97;;
40254;SDS011;25973;52.368;4.940;2023-06-24T05:26:39;5.43;;;2.22;;
40254;SDS011;25973;52.368;4.940;2023-06-24T05:29:04;6.72;;;2.03;;
40254;SDS011;25973;52.368;4.940;2023-06-24T05:31:30;7.18;;;2.15;;
40254;SDS011;25973;52.368;4.940;2023-06-24T05:33:56;6.30;;;2.35;;
40254;SDS011;25973;52.368;4.940;2023-06-24T05:36:21;4.40;;;2.20;;
40254;SDS011;25973;52.368;4.940;2023-06-24T05:38:47;7.05;;;2.30;;
40254;SDS011;25973;52.368;4.940;2023-06-24T05:41:13;6.78;;;2.33;;
40254;SDS011;25973;52.368;4.940;2023-06-24T05:43:39;5.05;;;2.72;;
40254;SDS011;25973;52.368;4.940;2023-06-24T05:46:07;5.57;;;2.20;;
40254;SDS011;25973;52.368;4.940;2023-06-24T05:48:33;6.95;;;2.30;;
40254;SDS011;25973;52.368;4.940;2023-06-24T05:50:58;9.10;;;2.40;;
40254;SDS011;25973;52.368;4.940;2023-06-24T05:53:24;4.13;;;2.30;;
40254;SDS011;25973;52.368;4.940;2023-06-24T05:55:50;4.00;;;2.45;;
40254;SDS011;25973;52.368;4.940;2023-06-24T05:58:15;6.95;;;2.85;;
40254;SDS011;25973;52.368;4.940;2023-06-24T06:00:41;5.15;;;2.65;;
40254;SDS011;25973;52.368;4.940;2023-06-24T06:03:06;5.40;;;2.20;;
40254;SDS011;25973;52.368;4.940;2023-06-24T06:05:32;6.57;;;2.53;;
40254;SDS011;25973;52.368;4.940;2023-06-24T06:07:58;5.65;;;2.50;;
40254;SDS011;25973;52.368;4.940;2023-06-24T06:10:23;5.32;;;2.35;;
40254;SDS011;25973;52.368;4.940;2023-06-24T06:12:49;11.38;;;2.30;;
40254;SDS011;25973;52.368;4.940;2023-06-24T06:15:15;4.93;;;2.50;;
40254;SDS011;25973;52.368;4.940;2023-06-24T06:17:40;4.45;;;2.10;;
40254;SDS011;25973;52.368;4.940;2023-06-24T06:20:06;6.13;;;2.25;;
40254;SDS011;25973;52.368;4.940;2023-06-24T06:22:32;5.40;;;2.20;;
40254;SDS011;25973;52.368;4.940;2023-06-24T06:25:02;7.43;;;2.30;;
40254;SDS011;25973;52.368;4.940;2023-06-24T06:27:29;11.25;;;2.55;;
40254;SDS011;25973;52.368;4.940;2023-06-24T06:29:54;5.45;;;2.40;;
40254;SDS011;25973;52.368;4.940;2023-06-24T06:32:20;5.70;;;2.33;;
40254;SDS011;25973;52.368;4.940;2023-06-24T06:34:45;7.65;;;2.58;;
40254;SDS011;25973;52.368;4.940;2023-06-24T06:37:11;4.90;;;2.25;;
40254;SDS011;25973;52.368;4.940;2023-06-24T06:39:37;5.43;;;2.25;;
40254;SDS011;25973;52.368;4.940;2023-06-24T06:42:02;4.85;;;2.22;;
40254;SDS011;25973;52.368;4.940;2023-06-24T06:44:28;5.55;;;2.17;;
40254;SDS011;25973;52.368;4.940;2023-06-24T06:46:54;3.25;;;1.80;;
40254;SDS011;25973;52.368;4.940;2023-06-24T06:49:19;10.45;;;2.70;;
40254;SDS011;25973;52.368;4.940;2023-06-24T06:51:45;5.20;;;2.25;;
40254;SDS011;25973;52.368;4.940;2023-06-24T06:54:10;5.57;;;2.40;;
40254;SDS011;25973;52.368;4.940;2023-06-24T06:56:36;9.68;;;2.72;;
40254;SDS011;25973;52.368;4.940;2023-06-24T06:59:01;4.68;;;2.05;;
40254;SDS011;25973;52.368;4.940;2023-06-24T07:01:27;5.50;;;2.50;;
40254;SDS011;25973;52.368;4.940;2023-06-24T07:03:53;5.45;;;2.47;;
40254;SDS011;25973;52.368;4.940;2023-06-24T07:06:18;4.82;;;2.50;;
40254;SDS011;25973;52.368;4.940;2023-06-24T07:08:44;7.20;;;2.92;;
40254;SDS011;25973;52.368;4.940;2023-06-24T07:11:11;9.63;;;2.38;;
40254;SDS011;25973;52.368;4.940;2023-06-24T07:13:36;5.40;;;2.28;;
40254;SDS011;25973;52.368;4.940;2023-06-24T07:16:02;5.40;;;2.25;;
40254;SDS011;25973;52.368;4.940;2023-06-24T07:18:27;6.40;;;2.58;;
40254;SDS011;25973;52.368;4.940;2023-06-24T07:20:55;4.22;;;2.28;;
40254;SDS011;25973;52.368;4.940;2023-06-24T07:23:21;5.07;;;2.30;;
40254;SDS011;25973;52.368;4.940;2023-06-24T07:25:47;4.55;;;2.55;;
40254;SDS011;25973;52.368;4.940;2023-06-24T07:28:13;4.93;;;3.00;;
40254;SDS011;25973;52.368;4.940;2023-06-24T07:30:39;4.32;;;2.60;;
40254;SDS011;25973;52.368;4.940;2023-06-24T07:33:07;4.57;;;2.28;;
40254;SDS011;25973;52.368;4.940;2023-06-24T07:35:33;4.18;;;2.30;;
40254;SDS011;25973;52.368;4.940;2023-06-24T07:37:58;7.18;;;3.17;;
40254;SDS011;25973;52.368;4.940;2023-06-24T07:40:25;3.70;;;1.95;;
40254;SDS011;25973;52.368;4.940;2023-06-24T07:42:50;7.22;;;2.92;;
40254;SDS011;25973;52.368;4.940;2023-06-24T07:45:16;6.10;;;2.72;;
40254;SDS011;25973;52.368;4.940;2023-06-24T07:47:41;4.47;;;2.28;;
40254;SDS011;25973;52.368;4.940;2023-06-24T07:50:07;5.55;;;2.78;;
40254;SDS011;25973;52.368;4.940;2023-06-24T07:52:35;5.38;;;2.60;;
40254;SDS011;25973;52.368;4.940;2023-06-24T07:55:01;4.53;;;2.67;;
40254;SDS011;25973;52.368;4.940;2023-06-24T07:57:28;6.65;;;2.60;;
40254;SDS011;25973;52.368;4.940;2023-06-24T07:59:54;6.63;;;3.38;;
40254;SDS011;25973;52.368;4.940;2023-06-24T08:02:19;4.60;;;2.20;;
40254;SDS011;25973;52.368;4.940;2023-06-24T08:04:45;6.97;;;2.55;;
40254;SDS011;25973;52.368;4.940;2023-06-24T08:07:11;6.28;;;2.83;;
40254;SDS011;25973;52.368;4.940;2023-06-24T08:09:36;9.32;;;2.92;;
40254;SDS011;25973;52.368;4.940;2023-06-24T08:12:02;7.68;;;2.58;;
40254;SDS011;25973;52.368;4.940;2023-06-24T08:14:28;5.00;;;2.60;;
40254;SDS011;25973;52.368;4.940;2023-06-24T08:16:54;5.55;;;2.25;;
40254;SDS011;25973;52.368;4.940;2023-06-24T08:19:19;4.05;;;2.22;;
40254;SDS011;25973;52.368;4.940;2023-06-24T08:21:45;9.43;;;2.67;;
40254;SDS011;25973;52.368;4.940;2023-06-24T08:24:11;8.80;;;2.80;;
40254;SDS011;25973;52.368;4.940;2023-06-24T08:26:36;4.95;;;2.88;;
40254;SDS011;25973;52.368;4.940;2023-06-24T08:29:02;6.50;;;3.08;;
40254;SDS011;25973;52.368;4.940;2023-06-24T08:31:28;6.53;;;2.97;;
40254;SDS011;25973;52.368;4.940;2023-06-24T08:33:53;4.20;;;3.13;;
40254;SDS011;25973;52.368;4.940;2023-06-24T08:36:21;4.82;;;2.45;;
40254;SDS011;25973;52.368;4.940;2023-06-24T08:38:46;4.78;;;2.60;;
40254;SDS011;25973;52.368;4.940;2023-06-24T08:41:12;6.82;;;2.75;;
40254;SDS011;25973;52.368;4.940;2023-06-24T08:43:38;4.93;;;2.78;;
40254;SDS011;25973;52.368;4.940;2023-06-24T08:46:05;6.82;;;3.05;;
40254;SDS011;25973;52.368;4.940;2023-06-24T08:48:30;8.15;;;3.63;;
40254;SDS011;25973;52.368;4.940;2023-06-24T08:50:58;6.55;;;2.60;;
40254;SDS011;25973;52.368;4.940;2023-06-24T08:53:26;7.47;;;2.15;;
40254;SDS011;25973;52.368;4.940;2023-06-24T08:55:52;6.15;;;2.63;;
40254;SDS011;25973;52.368;4.940;2023-06-24T08:58:19;7.25;;;2.20;;
40254;SDS011;25973;52.368;4.940;2023-06-24T09:00:45;5.50;;;2.38;;
40254;SDS011;25973;52.368;4.940;2023-06-24T09:03:11;5.55;;;2.55;;
40254;SDS011;25973;52.368;4.940;2023-06-24T09:05:37;5.00;;;2.55;;
40254;SDS011;25973;52.368;4.940;2023-06-24T09:08:02;5.97;;;3.50;;
40254;SDS011;25973;52.368;4.940;2023-06-24T09:10:29;6.05;;;3.10;;
40254;SDS011;25973;52.368;4.940;2023-06-24T09:12:56;4.70;;;2.65;;
40254;SDS011;25973;52.368;4.940;2023-06-24T09:15:22;3.63;;;2.38;;
40254;SDS011;25973;52.368;4.940;2023-06-24T09:17:47;4.68;;;2.67;;
40254;SDS011;25973;52.368;4.940;2023-06-24T09:20:13;3.50;;;2.10;;
40254;SDS011;25973;52.368;4.940;2023-06-24T09:22:41;4.18;;;2.20;;
40254;SDS011;25973;52.368;4.940;2023-06-24T09:25:07;6.28;;;2.30;;
40254;SDS011;25973;52.368;4.940;2023-06-24T09:27:33;4.65;;;2.05;;
40254;SDS011;25973;52.368;4.940;2023-06-24T09:29:58;4.82;;;2.55;;
40254;SDS011;25973;52.368;4.940;2023-06-24T09:32:30;4.85;;;2.38;;
40254;SDS011;25973;52.368;4.940;2023-06-24T09:34:56;3.28;;;2.28;;
40254;SDS011;25973;52.368;4.940;2023-06-24T09:37:22;4.10;;;2.53;;
40254;SDS011;25973;52.368;4.940;2023-06-24T09:39:55;4.97;;;2.13;;
40254;SDS011;25973;52.368;4.940;2023-06-24T09:42:21;5.13;;;2.20;;
40254;SDS011;25973;52.368;4.940;2023-06-24T09:44:52;6.53;;;3.35;;
40254;SDS011;25973;52.368;4.940;2023-06-24T09:47:19;7.18;;;2.92;;
40254;SDS011;25973;52.368;4.940;2023-06-24T09:49:44;4.53;;;2.80;;
40254;SDS011;25973;52.368;4.940;2023-06-24T09:52:10;4.18;;;2.20;;
40254;SDS011;25973;52.368;4.940;2023-06-24T09:54:41;6.82;;;2.97;;
40254;SDS011;25973;52.368;4.940;2023-06-24T09:57:09;3.90;;;2.30;;
40254;SDS011;25973;52.368;4.940;2023-06-24T09:59:35;4.65;;;2.60;;
40254;SDS011;25973;52.368;4.940;2023-06-24T10:02:02;5.57;;;2.80;;
40254;SDS011;25973;52.368;4.940;2023-06-24T10:04:29;5.65;;;3.55;;
40254;SDS011;25973;52.368;4.940;2023-06-24T10:06:56;6.10;;;2.45;;
40254;SDS011;25973;52.368;4.940;2023-06-24T10:09:22;3.55;;;2.20;;
40254;SDS011;25973;52.368;4.940;2023-06-24T10:11:48;4.15;;;2.28;;
40254;SDS011;25973;52.368;4.940;2023-06-24T10:14:14;6.00;;;2.67;;
40254;SDS011;25973;52.368;4.940;2023-06-24T10:16:40;6.65;;;2.10;;
40254;SDS011;25973;52.368;4.940;2023-06-24T10:19:07;7.55;;;3.00;;
40254;SDS011;25973;52.368;4.940;2023-06-24T10:24:31;5.85;;;2.55;;
40254;SDS011;25973;52.368;4.940;2023-06-24T10:27:04;5.60;;;3.33;;
40254;SDS011;25973;52.368;4.940;2023-06-24T10:29:37;6.00;;;3.28;;
40254;SDS011;25973;52.368;4.940;2023-06-24T10:32:04;3.70;;;2.42;;
40254;SDS011;25973;52.368;4.940;2023-06-24T10:37:04;6.43;;;3.03;;
40254;SDS011;25973;52.368;4.940;2023-06-24T10:39:53;4.63;;;3.15;;
40254;SDS011;25973;52.368;4.940;2023-06-24T10:44:58;4.75;;;2.40;;
40254;SDS011;25973;52.368;4.940;2023-06-24T10:47:25;8.13;;;3.30;;
40254;SDS011;25973;52.368;4.940;2023-06-24T10:49:52;7.20;;;4.30;;
40254;SDS011;25973;52.368;4.940;2023-06-24T10:52:21;12.68;;;7.25;;
40254;SDS011;25973;52.368;4.940;2023-06-24T10:54:48;7.68;;;3.33;;
40254;SDS011;25973;52.368;4.940;2023-06-24T10:57:15;6.35;;;3.05;;
40254;SDS011;25973;52.368;4.940;2023-06-24T10:59:47;7.68;;;2.70;;
40254;SDS011;25973;52.368;4.940;2023-06-24T11:02:14;6.93;;;2.78;;
40254;SDS011;25973;52.368;4.940;2023-06-24T11:04:57;7.22;;;3.47;;
40254;SDS011;25973;52.368;4.940;2023-06-24T11:07:28;6.53;;;2.53;;
40254;SDS011;25973;52.368;4.940;2023-06-24T11:10:00;5.65;;;2.88;;
40254;SDS011;25973;52.368;4.940;2023-06-24T11:12:29;9.50;;;4.80;;
40254;SDS011;25973;52.368;4.940;2023-06-24T11:15:10;12.13;;;4.63;;
40254;SDS011;25973;52.368;4.940;2023-06-24T11:20:06;10.27;;;3.15;;
40254;SDS011;25973;52.368;4.940;2023-06-24T11:22:33;8.18;;;3.60;;
40254;SDS011;25973;52.368;4.940;2023-06-24T11:24:59;6.53;;;2.72;;
40254;SDS011;25973;52.368;4.940;2023-06-24T11:27:28;6.95;;;3.05;;
40254;SDS011;25973;52.368;4.940;2023-06-24T11:29:55;6.72;;;2.85;;
40254;SDS011;25973;52.368;4.940;2023-06-24T11:32:40;7.30;;;2.75;;
40254;SDS011;25973;52.368;4.940;2023-06-24T11:35:08;4.55;;;2.40;;
40254;SDS011;25973;52.368;4.940;2023-06-24T11:37:35;5.00;;;1.98;;
40254;SDS011;25973;52.368;4.940;2023-06-24T11:40:04;10.68;;;3.53;;
40254;SDS011;25973;52.368;4.940;2023-06-24T11:42:32;10.55;;;4.03;;
40254;SDS011;25973;52.368;4.940;2023-06-24T11:45:04;15.48;;;3.28;;
40254;SDS011;25973;52.368;4.940;2023-06-24T11:47:32;8.48;;;3.33;;
40254;SDS011;25973;52.368;4.940;2023-06-24T11:50:02;5.78;;;2.75;;
40254;SDS011;25973;52.368;4.940;2023-06-24T11:55:00;7.75;;;3.22;;
40254;SDS011;25973;52.368;4.940;2023-06-24T12:00:13;11.77;;;4.25;;
40254;SDS011;25973;52.368;4.940;2023-06-24T12:02:39;8.35;;;2.97;;
40254;SDS011;25973;52.368;4.940;2023-06-24T12:05:05;6.68;;;3.10;;
40254;SDS011;25973;52.368;4.940;2023-06-24T12:07:31;7.03;;;2.67;;
40254;SDS011;25973;52.368;4.940;2023-06-24T12:09:56;7.38;;;3.55;;
40254;SDS011;25973;52.368;4.940;2023-06-24T12:12:22;6.85;;;3.53;;
40254;SDS011;25973;52.368;4.940;2023-06-24T12:14:48;10.18;;;3.67;;
40254;SDS011;25973;52.368;4.940;2023-06-24T12:17:13;8.75;;;3.05;;
40254;SDS011;25973;52.368;4.940;2023-06-24T12:19:39;10.00;;;2.95;;
40254;SDS011;25973;52.368;4.940;2023-06-24T12:22:04;7.53;;;3.35;;
40254;SDS011;25973;52.368;4.940;2023-06-24T12:24:30;5.80;;;3.30;;
40254;SDS011;25973;52.368;4.940;2023-06-24T12:26:55;6.00;;;2.90;;
40254;SDS011;25973;52.368;4.940;2023-06-24T12:29:21;10.48;;;3.42;;
40254;SDS011;25973;52.368;4.940;2023-06-24T12:31:47;4.88;;;2.90;;
40254;SDS011;25973;52.368;4.940;2023-06-24T12:34:12;8.65;;;3.20;;
40254;SDS011;25973;52.368;4.940;2023-06-24T12:36:38;9.35;;;2.97;;
40254;SDS011;25973;52.368;4.940;2023-06-24T12:39:03;8.05;;;3.20;;
40254;SDS011;25973;52.368;4.940;2023-06-24T12:41:29;11.57;;;3.33;;
40254;SDS011;25973;52.368;4.940;2023-06-24T12:43:54;6.88;;;3.00;;
40254;SDS011;25973;52.368;4.940;2023-06-24T12:46:20;12.95;;;4.65;;
40254;SDS011;25973;52.368;4.940;2023-06-24T12:48:46;11.98;;;4.00;;
40254;SDS011;25973;52.368;4.940;2023-06-24T12:51:11;6.60;;;3.08;;
40254;SDS011;25973;52.368;4.940;2023-06-24T12:53:37;5.22;;;2.80;;
40254;SDS011;25973;52.368;4.940;2023-06-24T12:56:02;6.80;;;3.10;;
40254;SDS011;25973;52.368;4.940;2023-06-24T12:58:28;4.38;;;2.72;;
40254;SDS011;25973;52.368;4.940;2023-06-24T13:00:54;8.38;;;3.03;;
40254;SDS011;25973;52.368;4.940;2023-06-24T13:03:19;6.60;;;2.75;;
40254;SDS011;25973;52.368;4.940;2023-06-24T13:05:45;3.88;;;2.30;;
40254;SDS011;25973;52.368;4.940;2023-06-24T13:08:10;7.30;;;3.00;;
40254;SDS011;25973;52.368;4.940;2023-06-24T13:10:36;6.53;;;3.13;;
40254;SDS011;25973;52.368;4.940;2023-06-24T13:13:03;7.25;;;2.63;;
40254;SDS011;25973;52.368;4.940;2023-06-24T13:15:29;6.65;;;2.70;;
40254;SDS011;25973;52.368;4.940;2023-06-24T13:17:56;5.07;;;2.50;;
40254;SDS011;25973;52.368;4.940;2023-06-24T13:20:21;7.50;;;2.40;;
40254;SDS011;25973;52.368;4.940;2023-06-24T13:22:47;7.68;;;2.95;;
40254;SDS011;25973;52.368;4.940;2023-06-24T13:25:12;6.80;;;2.53;;
40254;SDS011;25973;52.368;4.940;2023-06-24T13:27:38;5.88;;;2.75;;
40254;SDS011;25973;52.368;4.940;2023-06-24T13:30:04;5.30;;;2.30;;
40254;SDS011;25973;52.368;4.940;2023-06-24T13:32:30;7.43;;;3.00;;
40254;SDS011;25973;52.368;4.940;2023-06-24T13:34:55;6.07;;;2.88;;
40254;SDS011;25973;52.368;4.940;2023-06-24T13:37:21;7.28;;;2.92;;
40254;SDS011;25973;52.368;4.940;2023-06-24T13:39:47;5.78;;;3.17;;
40254;SDS011;25973;52.368;4.940;2023-06-24T13:42:13;7.25;;;3.22;;
40254;SDS011;25973;52.368;4.940;2023-06-24T13:44:38;9.15;;;3.85;;
40254;SDS011;25973;52.368;4.940;2023-06-24T13:47:04;6.65;;;2.55;;
40254;SDS011;25973;52.368;4.940;2023-06-24T13:49:30;5.10;;;2.30;;
40254;SDS011;25973;52.368;4.940;2023-06-24T13:51:55;13.68;;;2.60;;
40254;SDS011;25973;52.368;4.940;2023-06-24T13:54:21;7.15;;;2.67;;
40254;SDS011;25973;52.368;4.940;2023-06-24T13:56:46;8.15;;;3.00;;
40254;SDS011;25973;52.368;4.940;2023-06-24T13:59:12;5.80;;;2.65;;
40254;SDS011;25973;52.368;4.940;2023-06-24T14:01:38;6.43;;;2.90;;
40254;SDS011;25973;52.368;4.940;2023-06-24T14:04:03;4.70;;;2.53;;
40254;SDS011;25973;52.368;4.940;2023-06-24T14:06:29;7.30;;;3.25;;
40254;SDS011;25973;52.368;4.940;2023-06-24T14:08:56;6.78;;;3.25;;
40254;SDS011;25973;52.368;4.940;2023-06-24T14:11:21;8.90;;;3.53;;
40254;SDS011;25973;52.368;4.940;2023-06-24T14:13:47;9.63;;;3.15;;
40254;SDS011;25973;52.368;4.940;2023-06-24T14:16:12;11.55;;;3.05;;
40254;SDS011;25973;52.368;4.940;2023-06-24T14:18:38;7.90;;;3.13;;
40254;SDS011;25973;52.368;4.940;2023-06-24T14:21:05;6.65;;;2.40;;
40254;SDS011;25973;52.368;4.940;2023-06-24T14:23:31;10.70;;;4.22;;
40254;SDS011;25973;52.368;4.940;2023-06-24T14:25:58;11.88;;;3.03;;
40254;SDS011;25973;52.368;4.940;2023-06-24T14:28:24;8.10;;;2.80;;
40254;SDS011;25973;52.368;4.940;2023-06-24T14:30:51;4.53;;;2.60;;
40254;SDS011;25973;52.368;4.940;2023-06-24T14:33:16;9.90;;;3.40;;
40254;SDS011;25973;52.368;4.940;2023-06-24T14:35:42;8.43;;;3.13;;
40254;SDS011;25973;52.368;4.940;2023-06-24T14:38:08;5.97;;;2.85;;
40254;SDS011;25973;52.368;4.940;2023-06-24T14:40:34;5.50;;;3.05;;
40254;SDS011;25973;52.368;4.940;2023-06-24T14:42:59;9.60;;;3.20;;
40254;SDS011;25973;52.368;4.940;2023-06-24T14:45:26;4.75;;;2.67;;
40254;SDS011;25973;52.368;4.940;2023-06-24T14:47:52;6.55;;;2.75;;
40254;SDS011;25973;52.368;4.940;2023-06-24T14:50:17;5.30;;;2.53;;
40254;SDS011;25973;52.368;4.940;2023-06-24T14:52:43;9.32;;;2.95;;
40254;SDS011;25973;52.368;4.940;2023-06-24T14:55:09;8.23;;;2.88;;
40254;SDS011;25973;52.368;4.940;2023-06-24T14:57:35;7.75;;;2.88;;
40254;SDS011;25973;52.368;4.940;2023-06-24T15:00:01;4.78;;;2.85;;
40254;SDS011;25973;52.368;4.940;2023-06-24T15:02:28;7.43;;;2.88;;
40254;SDS011;25973;52.368;4.940;2023-06-24T15:04:53;8.57;;;3.30;;
40254;SDS011;25973;52.368;4.940;2023-06-24T15:07:19;4.95;;;2.97;;
40254;SDS011;25973;52.368;4.940;2023-06-24T15:09:44;9.98;;;3.40;;
40254;SDS011;25973;52.368;4.940;2023-06-24T15:12:10;6.82;;;2.80;;
40254;SDS011;25973;52.368;4.940;2023-06-24T15:14:36;7.15;;;3.20;;